AAL1565 KDFW-KCMH
Flight info
| Callsign | AAL1565 |
|---|---|
| Flight time | N/A |
| Altitude | 37000 |
| Route | ZACHH4 BSKAT LITTR Q68 LAJUG GETTA JAKTZ2 |
| Aircraft | B738/M-SDE2E3FGHIRWXY/LB1 |
Departure
| Time | N/A |
|---|---|
| Airport | Dallas Fort Worth International Airport (KDFW) |
Arrival
| Time | 2026-05-03 20:19 |
|---|---|
| Airport | John Glenn Columbus International Airport (KCMH) |
| Time | Latitude | Longitude | Altitude | Speed | Heading |
|---|---|---|---|---|---|
| 2026-05-03 20:15 | 39.98120 | -82.68558 | 3690 ft | 165 kts | 270° |
| 2026-05-03 20:15 | 39.98205 | -82.70026 | 3487 ft | 158 kts | 272° |
| 2026-05-03 20:15 | 39.98264 | -82.71430 | 3252 ft | 152 kts | 269° |
| 2026-05-03 20:15 | 39.98317 | -82.72780 | 3069 ft | 147 kts | 270° |
| 2026-05-03 20:16 | 39.98447 | -82.74110 | 2870 ft | 150 kts | 271° |
| 2026-05-03 20:16 | 39.98521 | -82.75435 | 2678 ft | 145 kts | 269° |
| 2026-05-03 20:16 | 39.98580 | -82.76754 | 2456 ft | 144 kts | 269° |
| 2026-05-03 20:16 | 39.98646 | -82.78056 | 2262 ft | 145 kts | 274° |
| 2026-05-03 20:17 | 39.98713 | -82.79330 | 2074 ft | 137 kts | 265° |
| 2026-05-03 20:17 | 39.98778 | -82.80575 | 1895 ft | 137 kts | 272° |
| 2026-05-03 20:17 | 39.98894 | -82.81791 | 1769 ft | 136 kts | 270° |
| 2026-05-03 20:17 | 39.98955 | -82.83034 | 1621 ft | 138 kts | 270° |
| 2026-05-03 20:18 | 39.98994 | -82.84274 | 1410 ft | 138 kts | 264° |
| 2026-05-03 20:18 | 39.99051 | -82.85554 | 1229 ft | 143 kts | 273° |
| 2026-05-03 20:18 | 39.99124 | -82.86838 | 986 ft | 140 kts | 273° |
| 2026-05-03 20:18 | 39.99206 | -82.88078 | 833 ft | 129 kts | 274° |
| 2026-05-03 20:19 | 39.99262 | -82.89043 | 821 ft | 83 kts | 275° |
| 2026-05-03 20:19 | 39.99291 | -82.89534 | 820 ft | 26 kts | 273° |
| 2026-05-03 20:19 | 39.99301 | -82.89748 | 821 ft | 23 kts | 276° |
| 2026-05-03 20:19 | 39.99325 | -82.89953 | 817 ft | 23 kts | 286° |
| 2026-05-03 20:20 | 39.99396 | -82.90148 | 818 ft | 27 kts | 303° |
| 2026-05-03 20:20 | 39.99440 | -82.90228 | 815 ft | 1 kts | 307° |
| 2026-05-03 20:20 | 39.99446 | -82.90230 | 818 ft | 1 kts | 357° |
| 2026-05-03 20:20 | 39.99479 | -82.90214 | 817 ft | 12 kts | 32° |
| 2026-05-03 20:21 | 39.99497 | -82.90110 | 817 ft | 12 kts | 95° |
| 2026-05-03 20:21 | 39.99488 | -82.90002 | 820 ft | 12 kts | 95° |
| 2026-05-03 20:21 | 39.99483 | -82.89896 | 823 ft | 12 kts | 95° |
| 2026-05-03 20:21 | 39.99477 | -82.89794 | 823 ft | 11 kts | 94° |
| 2026-05-03 20:22 | 39.99471 | -82.89671 | 822 ft | 16 kts | 93° |
| 2026-05-03 20:22 | 39.99463 | -82.89504 | 824 ft | 20 kts | 94° |
| 2026-05-03 20:22 | 39.99452 | -82.89327 | 825 ft | 19 kts | 94° |
| 2026-05-03 20:22 | 39.99443 | -82.89156 | 821 ft | 19 kts | 94° |
| 2026-05-03 20:23 | 39.99433 | -82.88970 | 821 ft | 21 kts | 94° |
| 2026-05-03 20:23 | 39.99423 | -82.88785 | 819 ft | 20 kts | 94° |
| 2026-05-03 20:23 | 39.99411 | -82.88609 | 815 ft | 19 kts | 95° |
| 2026-05-03 20:23 | 39.99402 | -82.88439 | 819 ft | 16 kts | 94° |
| 2026-05-03 20:24 | 39.99415 | -82.88340 | 819 ft | 10 kts | 49° |
| 2026-05-03 20:24 | 39.99483 | -82.88323 | 815 ft | 10 kts | 3° |
| 2026-05-03 20:24 | 39.99552 | -82.88319 | 817 ft | 10 kts | 350° |
| 2026-05-03 20:24 | 39.99612 | -82.88354 | 815 ft | 9 kts | 337° |
| 2026-05-03 20:25 | 39.99628 | -82.88395 | 818 ft | 0 kts | 280° |
| 2026-05-03 20:25 | 39.99635 | -82.88399 | 818 ft | 0 kts | 340° |
| 2026-05-03 20:25 | 39.99647 | -82.88399 | 818 ft | 0 kts | 0° |